Tetide — IVTN — position and weather

sailwx.info

Track history (hours):
 
Tides and Currents Weather Stations Pressure Air Temp Water Temp Dewpoint Dewpoint Depression Visibility Wind Speed Wind Dir Waves Ship Positions

Tetide

Last reported at 2016-Dec-01 13:32 UTC. Time now 2016-Dec-03 04:37 UTC.
Position N 40°48' E 013°26'.

Length 70 m; draft 3.6 m.

Type: Passenger vessel. MMSI: 247043100.

Date/timePositionNaut miles runAvg speedWind from/ knotsBaromVisibWave heightAir tempDewpointWater temp
2016-Dec-01 13:32N 40°48' E 013°26'0 0.0
2016-Dec-01 12:32N 40°48' E 013°26'0 0.0
2016-Dec-01 11:33N 40°48' E 013°26'0 0.0
2016-Dec-01 10:32N 40°48' E 013°26'1111.0
2016-Dec-01 09:32N 40°58' E 013°30'1715.2
2016-Dec-01 08:24N 41°15' E 013°37'1 0.6
2016-Dec-01 07:32N 41°15' E 013°37'0 0.0
2016-Dec-01 06:25N 41°15' E 013°37'0 0.0
2016-Dec-01 05:32N 41°15' E 013°37'0 0.0
2016-Dec-01 04:31N 41°15' E 013°37'0 0.0
2016-Dec-01 00:26N 41°15' E 013°37'0 0.0
2016-Nov-30 23:30N 41°15' E 013°37'0 0.0
2016-Nov-30 22:33N 41°15' E 013°37'0 0.0
2016-Nov-30 21:33N 41°15' E 013°37'0 0.0
2016-Nov-30 20:33N 41°15' E 013°37'0 0.0
2016-Nov-30 19:33N 41°15' E 013°37'0 0.0
2016-Nov-30 18:33N 41°15' E 013°37'0 0.0
2016-Nov-30 17:33N 41°15' E 013°37'0 0.0
2016-Nov-30 16:18N 41°15' E 013°37'810.3
2016-Nov-30 15:33N 41°09' E 013°30'5 0.7
2016-Nov-30 08:33N 41°12' E 013°36'2 0.2
2016-Nov-29 19:29N 41°11' E 013°39'1314.3
2016-Nov-29 18:33N 40°60' E 013°47'1514.7
2016-Nov-29 17:33N 40°48' E 013°59'1312.9
2016-Nov-29 16:33N 40°49' E 014°16'2 1.8
2016-Nov-29 15:31N 40°51' E 014°16'0 0.0
2016-Nov-29 14:31N 40°51' E 014°16'0 0.0
2016-Nov-29 13:31N 40°51' E 014°16'0 0.0
2016-Nov-29 12:13N 40°51' E 014°16'0 0.0
2016-Nov-29 11:19N 40°51' E 014°16'0 0.0
2016-Nov-29 10:19N 40°51' E 014°16'0 0.0
2016-Nov-29 07:31N 40°51' E 014°16'0 0.0
2016-Nov-29 06:25N 40°51' E 014°16'0 0.0
2016-Nov-28 20:13N 40°51' E 014°16'0 0.0
2016-Nov-28 19:31N 40°51' E 014°16'0 0.0
2016-Nov-28 18:31N 40°51' E 014°16'0 0.0
2016-Nov-28 17:31N 40°51' E 014°16'0 0.0
2016-Nov-28 16:25N 40°51' E 014°16'  
Track history (hours):
 
Tides and Currents Weather Stations Pressure Air Temp Water Temp Dewpoint Dewpoint Depression Visibility Wind Speed Wind Dir Waves Ship Positions

Tetide

Last reported at 2016-Dec-01 13:32 UTC. Time now 2016-Dec-03 04:37 UTC.
Position N 40°48' E 013°26'.

Length 70 m; draft 3.6 m.

Type: Passenger vessel. MMSI: 247043100.

Date/timePositionNaut miles runAvg speedWind from/ knotsBaromVisibWave heightAir tempDewpointWater temp
2016-Dec-01 13:32N 40°48' E 013°26'0 0.0
2016-Dec-01 12:32N 40°48' E 013°26'0 0.0
2016-Dec-01 11:33N 40°48' E 013°26'0 0.0
2016-Dec-01 10:32N 40°48' E 013°26'1111.0
2016-Dec-01 09:32N 40°58' E 013°30'1715.2
2016-Dec-01 08:24N 41°15' E 013°37'1 0.6
2016-Dec-01 07:32N 41°15' E 013°37'0 0.0
2016-Dec-01 06:25N 41°15' E 013°37'0 0.0
2016-Dec-01 05:32N 41°15' E 013°37'0 0.0
2016-Dec-01 04:31N 41°15' E 013°37'0 0.0
2016-Dec-01 00:26N 41°15' E 013°37'0 0.0
2016-Nov-30 23:30N 41°15' E 013°37'0 0.0
2016-Nov-30 22:33N 41°15' E 013°37'0 0.0
2016-Nov-30 21:33N 41°15' E 013°37'0 0.0
2016-Nov-30 20:33N 41°15' E 013°37'0 0.0
2016-Nov-30 19:33N 41°15' E 013°37'0 0.0
2016-Nov-30 18:33N 41°15' E 013°37'0 0.0
2016-Nov-30 17:33N 41°15' E 013°37'0 0.0
2016-Nov-30 16:18N 41°15' E 013°37'810.3
2016-Nov-30 15:33N 41°09' E 013°30'5 0.7
2016-Nov-30 08:33N 41°12' E 013°36'2 0.2
2016-Nov-29 19:29N 41°11' E 013°39'1314.3
2016-Nov-29 18:33N 40°60' E 013°47'1514.7
2016-Nov-29 17:33N 40°48' E 013°59'1312.9
2016-Nov-29 16:33N 40°49' E 014°16'2 1.8
2016-Nov-29 15:31N 40°51' E 014°16'0 0.0
2016-Nov-29 14:31N 40°51' E 014°16'0 0.0
2016-Nov-29 13:31N 40°51' E 014°16'0 0.0
2016-Nov-29 12:13N 40°51' E 014°16'0 0.0
2016-Nov-29 11:19N 40°51' E 014°16'0 0.0
2016-Nov-29 10:19N 40°51' E 014°16'0 0.0
2016-Nov-29 07:31N 40°51' E 014°16'0 0.0
2016-Nov-29 06:25N 40°51' E 014°16'0 0.0
2016-Nov-28 20:13N 40°51' E 014°16'0 0.0
2016-Nov-28 19:31N 40°51' E 014°16'0 0.0
2016-Nov-28 18:31N 40°51' E 014°16'0 0.0
2016-Nov-28 17:31N 40°51' E 014°16'0 0.0
2016-Nov-28 16:25N 40°51' E 014°16'  

Dump ship's entire track history